Time;durP1;ratioP1;P1;durP2;ratioP2;P2;SDS_P1;SDS_P2;PMS_P1;PMS_P2;Temp;Humidity;BMP_temperature;BMP_pressure;BME280_temperature;BME280_humidity;BME280_pressure;Samples;Min_cycle;Max_cycle;Signal;HPM_P1;HPM_P2
2022/02/19 00:01:46;;;;;;;;;;;;;;;19.19;59.40;101075.25;5005566;28;1679;-32
2022/02/19 00:04:16;;;;;;;;;;;;;;;19.15;59.75;101082.69;5013302;28;1980;-32
2022/02/19 00:06:51;;;;;;;;;;;;;;;19.15;59.36;101077.31;5017428;28;1523;-33
2022/02/19 00:09:20;;;;;;;;;;;;;;;19.13;59.68;101067.72;5002777;28;1369;-32
2022/02/19 00:11:50;;;;;;;;;;;;;;;19.11;60.13;101069.69;5010093;28;1795;-32
2022/02/19 00:14:26;;;;;;;;;;;;;;;19.15;60.04;101071.13;5005669;28;1965;-32
2022/02/19 00:16:58;;;;;;;;;;;;;;;19.08;59.49;101071.63;5017145;28;1578;-32
2022/02/19 00:19:27;;;;;;;;;;;;;;;19.11;59.93;101070.50;5010091;28;1985;-32
2022/02/19 00:21:57;;;;;;;;;;;;;;;19.12;59.83;101071.34;4996577;28;1104;-32
2022/02/19 00:24:24;;;;;;;;;;;;;;;19.12;59.44;101060.63;5005618;28;1958;-32
2022/02/19 00:26:54;;;;;;;;;;;;;;;19.06;59.93;101060.19;5012382;28;1480;-33
2022/02/19 00:29:25;;;;;;;;;;;;;;;19.06;59.97;101072.75;5007508;28;1740;-33
2022/02/19 00:31:54;;;;;;;;;;;;;;;19.06;59.45;101070.06;5007880;28;1957;-32
2022/02/19 00:34:27;;;;;;;;;;;;;;;19.05;59.85;101079.91;5010194;28;1910;-32
2022/02/19 00:36:55;;;;;;;;;;;;;;;19.04;59.72;101080.06;5011345;28;1524;-32
2022/02/19 00:39:29;;;;;;;;;;;;;;;19.00;59.91;101089.31;5002162;28;1440;-32
2022/02/19 00:42:05;;;;;;;;;;;;;;;19.03;59.42;101087.22;5002860;28;1727;-32
2022/02/19 00:44:33;;;;;;;;;;;;;;;19.01;59.78;101091.03;4996560;28;1206;-32
2022/02/19 00:47:00;;;;;;;;;;;;;;;19.00;58.94;101082.16;5003205;28;1984;-32
2022/02/19 00:49:31;;;;;;;;;;;;;;;19.02;58.93;101104.31;5006545;28;1862;-32
2022/02/19 00:52:00;;;;;;;;;;;;;;;19.01;58.92;101107.94;5011477;28;1828;-32
2022/02/19 00:54:30;;;;;;;;;;;;;;;18.98;59.67;101097.50;5007282;28;1906;-32
2022/02/19 00:56:56;;;;;;;;;;;;;;;19.01;58.97;101107.94;5001947;28;1330;-32
2022/02/19 00:59:24;;;;;;;;;;;;;;;19.02;58.99;101093.59;5015358;28;1012;-32
2022/02/19 01:01:53;;;;;;;;;;;;;;;19.03;59.73;101097.97;5011590;28;1918;-32
2022/02/19 01:04:22;;;;;;;;;;;;;;;19.03;59.36;101092.59;5009673;28;1799;-32
2022/02/19 01:06:54;;;;;;;;;;;;;;;19.02;59.40;101098.94;5004161;28;1754;-32
2022/02/19 01:09:26;;;;;;;;;;;;;;;19.00;59.02;101098.22;5009134;28;1305;-32
2022/02/19 01:11:55;;;;;;;;;;;;;;;19.01;59.71;101096.38;5009903;28;1520;-32
2022/02/19 01:14:25;;;;;;;;;;;;;;;18.96;59.31;101082.50;5010778;28;1969;-33
2022/02/19 01:16:53;;;;;;;;;;;;;;;18.95;59.44;101097.75;5013944;28;1623;-33
2022/02/19 01:19:22;;;;;;;;;;;;;;;18.93;58.89;101097.03;5000166;28;1387;-32
2022/02/19 01:21:53;;;;;;;;;;;;;;;19.03;58.44;101097.97;5018987;28;1541;-32
2022/02/19 01:24:22;;;;;;;;;;;;;;;19.05;59.74;101087.97;5004896;28;1968;-32
2022/02/19 01:26:51;;;;;;;;;;;;;;;19.01;59.33;101086.50;5009254;28;1821;-32
2022/02/19 01:29:17;;;;;;;;;;;;;;;19.00;59.85;101087.50;5002988;28;1796;-33
2022/02/19 01:31:46;;;;;;;;;;;;;;;18.95;59.81;101079.00;5026902;28;1695;-32
2022/02/19 01:34:14;;;;;;;;;;;;;;;18.94;59.75;101084.47;5013553;28;1902;-32
2022/02/19 01:36:50;;;;;;;;;;;;;;;18.95;59.63;101084.34;5009532;28;1659;-32
2022/02/19 01:39:29;;;;;;;;;;;;;;;18.98;59.51;101094.81;4998220;28;1943;-32
2022/02/19 01:41:59;;;;;;;;;;;;;;;18.95;59.73;101078.16;4998746;28;1710;-32
2022/02/19 01:44:34;;;;;;;;;;;;;;;18.91;59.88;101063.31;5005806;28;2049;-32
2022/02/19 01:47:03;;;;;;;;;;;;;;;18.92;59.25;101064.97;5006253;28;1901;-32
2022/02/19 01:49:33;;;;;;;;;;;;;;;18.89;59.47;101066.09;5000181;28;1451;-32
2022/02/19 01:52:02;;;;;;;;;;;;;;;18.90;59.63;101077.66;5003226;28;1989;-32
2022/02/19 01:54:39;;;;;;;;;;;;;;;18.87;59.69;101082.28;5001458;28;1911;-32
2022/02/19 01:57:09;;;;;;;;;;;;;;;18.83;59.85;101080.84;5004421;28;1632;-32
2022/02/19 01:59:40;;;;;;;;;;;;;;;18.84;59.46;101090.59;4995534;28;2050;-32
2022/02/19 02:02:07;;;;;;;;;;;;;;;18.85;59.16;101091.44;5005495;28;1967;-32
2022/02/19 02:04:34;;;;;;;;;;;;;;;18.82;59.75;101086.31;5006615;28;1744;-32
2022/02/19 02:07:05;;;;;;;;;;;;;;;18.88;59.44;101091.22;4999803;28;2001;-32
2022/02/19 02:09:36;;;;;;;;;;;;;;;18.83;59.51;101085.38;5005979;28;1443;-32
2022/02/19 02:12:13;;;;;;;;;;;;;;;18.81;59.45;101095.38;5003081;28;1508;-32
2022/02/19 02:14:42;;;;;;;;;;;;;;;18.81;59.15;101087.31;5005148;28;1976;-32
2022/02/19 02:17:12;;;;;;;;;;;;;;;18.81;59.71;101081.97;5008705;28;1755;-32
2022/02/19 02:19:41;;;;;;;;;;;;;;;18.81;59.13;101074.78;5011542;28;1791;-32
2022/02/19 02:22:14;;;;;;;;;;;;;;;18.78;59.63;101076.81;5014939;28;1441;-32
2022/02/19 02:24:44;;;;;;;;;;;;;;;18.80;59.17;101083.81;5004617;28;1810;-32
2022/02/19 02:27:12;;;;;;;;;;;;;;;18.80;59.36;101086.47;5003779;28;1960;-32
2022/02/19 02:29:46;;;;;;;;;;;;;;;18.78;58.98;101083.03;5009406;28;1808;-32
2022/02/19 02:32:15;;;;;;;;;;;;;;;18.83;59.43;101098.75;5010183;28;1763;-32
2022/02/19 02:34:49;;;;;;;;;;;;;;;18.78;59.31;101083.03;5004808;28;1906;-32
2022/02/19 02:37:22;;;;;;;;;;;;;;;18.78;58.91;101095.56;4999072;28;1313;-32
2022/02/19 02:39:52;;;;;;;;;;;;;;;18.75;59.09;101098.50;5001430;28;1855;-32
2022/02/19 02:42:19;;;;;;;;;;;;;;;18.77;59.15;101099.25;5008209;28;1588;-32
2022/02/19 02:44:51;;;;;;;;;;;;;;;18.75;58.89;101101.19;5013978;28;1087;-32
2022/02/19 02:47:19;;;;;;;;;;;;;;;18.72;59.12;101101.44;4999848;28;1930;-32
2022/02/19 02:49:47;;;;;;;;;;;;;;;18.73;58.76;101093.28;5004495;28;1767;-32
2022/02/19 02:52:13;;;;;;;;;;;;;;;18.72;58.96;101099.63;5012568;28;1537;-32
2022/02/19 02:54:43;;;;;;;;;;;;;;;18.75;58.74;101091.31;5007149;28;1906;-32
2022/02/19 02:57:17;;;;;;;;;;;;;;;18.71;58.44;101079.16;5000444;28;1562;-32
2022/02/19 02:59:46;;;;;;;;;;;;;;;18.69;58.69;101071.25;4994006;28;1010;-32
2022/02/19 03:02:15;;;;;;;;;;;;;;;18.67;58.12;101062.47;5134676;22;3791;-32
2022/02/19 03:04:41;;;;;;;;;;;;;;;18.71;57.72;101056.88;5031916;28;1981;-30
2022/02/19 03:07:08;;;;;;;;;;;;;;;18.69;58.46;101048.97;5032475;28;1944;-30
2022/02/19 03:09:34;;;;;;;;;;;;;;;18.69;58.94;101039.09;5032873;28;1820;-30
2022/02/19 03:12:02;;;;;;;;;;;;;;;18.68;58.40;101032.06;5032693;28;1510;-30
2022/02/19 03:14:29;;;;;;;;;;;;;;;18.69;58.78;101028.38;5032932;28;1984;-30
2022/02/19 03:16:55;;;;;;;;;;;;;;;18.69;58.71;101025.69;5032031;28;1924;-30
2022/02/19 03:19:22;;;;;;;;;;;;;;;18.66;58.72;101017.06;5032347;28;1482;-30
2022/02/19 03:21:48;;;;;;;;;;;;;;;18.65;58.72;101010.84;5035509;28;1151;-30
2022/02/19 03:24:15;;;;;;;;;;;;;;;18.69;58.45;101028.38;5036390;28;1926;-30
2022/02/19 03:26:41;;;;;;;;;;;;;;;18.66;58.27;101025.97;5036629;28;1601;-31
2022/02/19 03:29:09;;;;;;;;;;;;;;;18.65;58.26;101034.97;5036459;28;1833;-30
2022/02/19 03:31:38;;;;;;;;;;;;;;;18.68;58.18;101037.41;5031824;28;1754;-30
2022/02/19 03:34:06;;;;;;;;;;;;;;;18.64;58.46;101025.25;5036697;28;1283;-30
2022/02/19 03:36:34;;;;;;;;;;;;;;;18.64;58.12;101029.72;5036529;28;2050;-30
2022/02/19 03:39:04;;;;;;;;;;;;;;;18.65;57.91;101026.09;5036559;28;2007;-30
2022/02/19 03:41:34;;;;;;;;;;;;;;;18.60;58.08;101031.84;5036213;28;1973;-30
2022/02/19 03:44:03;;;;;;;;;;;;;;;18.62;58.52;101037.03;5023746;28;1074;-30
2022/02/19 03:46:32;;;;;;;;;;;;;;;18.65;58.08;101039.47;5036071;28;1669;-30
2022/02/19 03:49:02;;;;;;;;;;;;;;;18.62;58.28;101039.72;5036358;28;2045;-30
2022/02/19 03:51:29;;;;;;;;;;;;;;;18.62;57.34;101029.88;5035819;28;1735;-30
2022/02/19 03:54:00;;;;;;;;;;;;;;;18.63;58.04;101039.59;5036073;28;1660;-30
2022/02/19 03:56:29;;;;;;;;;;;;;;;18.63;58.28;101036.09;5036158;28;1973;-30
2022/02/19 03:58:55;;;;;;;;;;;;;;;18.62;58.31;101037.91;5036344;28;1146;-30
2022/02/19 04:01:23;;;;;;;;;;;;;;;18.63;58.57;101033.41;5035111;28;1680;-30
2022/02/19 04:03:55;;;;;;;;;;;;;;;18.60;58.27;101034.50;5036136;28;1737;-30
2022/02/19 04:06:25;;;;;;;;;;;;;;;18.63;58.24;101028.03;5030000;28;1863;-31
2022/02/19 04:08:52;;;;;;;;;;;;;;;18.60;58.40;101039.88;5033281;28;1102;-30
2022/02/19 04:11:19;;;;;;;;;;;;;;;18.64;58.54;101046.69;5036029;28;1859;-30
2022/02/19 04:13:47;;;;;;;;;;;;;;;18.61;58.33;101030.00;5035330;28;1727;-30
2022/02/19 04:16:21;;;;;;;;;;;;;;;18.60;58.34;101018.44;5035225;28;2048;-30
2022/02/19 04:18:47;;;;;;;;;;;;;;;18.59;58.66;101031.97;5027895;28;1863;-30
2022/02/19 04:21:17;;;;;;;;;;;;;;;18.58;58.39;101027.56;5035911;28;1079;-30
2022/02/19 04:23:44;;;;;;;;;;;;;;;18.60;58.19;101034.50;5035772;28;1953;-30
2022/02/19 04:26:11;;;;;;;;;;;;;;;18.55;58.42;101028.69;5035613;28;1822;-31
2022/02/19 04:28:40;;;;;;;;;;;;;;;18.54;57.87;101018.91;5035329;28;1924;-30
2022/02/19 04:31:09;;;;;;;;;;;;;;;18.58;57.86;101027.56;5034769;28;1595;-30
2022/02/19 04:33:40;;;;;;;;;;;;;;;18.55;57.79;101031.34;5035316;28;1476;-31
2022/02/19 04:36:07;;;;;;;;;;;;;;;18.56;57.41;101029.50;5019005;28;1906;-31
2022/02/19 04:38:38;;;;;;;;;;;;;;;18.56;58.36;101041.09;5034924;28;1612;-31
2022/02/19 04:43:49;;;;;;;;;;;;;;;18.56;57.91;101038.44;5028940;28;2443;-30
2022/02/19 04:46:18;;;;;;;;;;;;;;;18.55;57.95;101031.34;5034852;28;1722;-30
2022/02/19 04:48:44;;;;;;;;;;;;;;;18.55;57.16;101031.34;5035458;28;1776;-30
2022/02/19 04:51:11;;;;;;;;;;;;;;;18.54;58.00;101039.50;5035028;28;1602;-30
2022/02/19 04:53:43;;;;;;;;;;;;;;;18.56;57.67;101049.13;5034955;28;2023;-30
2022/02/19 04:56:10;;;;;;;;;;;;;;;18.54;57.28;101045.69;5017917;28;2035;-30
2022/02/19 04:58:37;;;;;;;;;;;;;;;18.54;57.30;101032.31;5035402;28;1031;-30
2022/02/19 05:01:03;;;;;;;;;;;;;;;18.52;57.57;101042.31;5034537;28;1628;-30
2022/02/19 05:03:30;;;;;;;;;;;;;;;18.51;57.84;101039.78;5034996;28;1453;-30
2022/02/19 05:05:57;;;;;;;;;;;;;;;18.51;57.68;101035.25;5034674;28;1732;-30
2022/02/19 05:08:24;;;;;;;;;;;;;;;18.52;57.83;101036.09;5034296;28;1846;-31
2022/02/19 05:10:52;;;;;;;;;;;;;;;18.50;57.83;101025.50;5035092;28;1811;-31
2022/02/19 05:13:18;;;;;;;;;;;;;;;18.51;57.32;101045.97;5029605;28;1522;-32
2022/02/19 05:15:47;;;;;;;;;;;;;;;18.53;57.79;101041.34;5024397;28;1910;-31
2022/02/19 05:18:14;;;;;;;;;;;;;;;18.52;57.75;101036.94;5034319;28;1579;-30
2022/02/19 05:20:44;;;;;;;;;;;;;;;18.53;58.14;101040.50;5018329;28;1526;-30
2022/02/19 05:23:14;;;;;;;;;;;;;;;18.55;57.64;101034.03;5021413;28;2002;-30
2022/02/19 05:25:43;;;;;;;;;;;;;;;18.54;58.21;101026.13;5033872;28;1863;-31
2022/02/19 05:28:14;;;;;;;;;;;;;;;18.53;57.63;101024.44;5034293;28;1918;-30
2022/02/19 05:30:41;;;;;;;;;;;;;;;18.55;58.08;101031.34;5018909;28;1471;-30
2022/02/19 05:33:08;;;;;;;;;;;;;;;18.51;57.75;101029.91;5034302;28;1620;-32
2022/02/19 05:35:35;;;;;;;;;;;;;;;18.49;57.99;101031.84;5034692;28;1906;-30
2022/02/19 05:38:04;;;;;;;;;;;;;;;18.50;57.97;101020.16;5034003;28;1794;-31
2022/02/19 05:40:32;;;;;;;;;;;;;;;18.48;57.79;101004.22;5032989;28;1771;-30
2022/02/19 05:43:01;;;;;;;;;;;;;;;18.49;57.10;100999.72;5029304;28;1936;-31
2022/02/19 05:45:33;;;;;;;;;;;;;;;18.47;57.78;100999.84;5033326;28;1620;-30
2022/02/19 05:48:01;;;;;;;;;;;;;;;18.49;57.89;101005.06;5033519;28;1613;-30
2022/02/19 05:50:29;;;;;;;;;;;;;;;18.46;57.52;101006.19;5034643;28;977;-30
2022/02/19 05:52:56;;;;;;;;;;;;;;;18.48;57.77;100993.53;5034172;28;1821;-30
2022/02/19 05:55:22;;;;;;;;;;;;;;;18.49;57.13;100989.00;5033076;28;2269;-30
2022/02/19 05:57:52;;;;;;;;;;;;;;;18.48;57.78;101001.56;5033739;28;1948;-30
2022/02/19 06:00:22;;;;;;;;;;;;;;;18.48;57.58;101019.44;5032565;28;1697;-30
2022/02/19 06:02:54;;;;;;;;;;;;;;;18.51;57.69;101011.16;5030357;28;1444;-30
2022/02/19 06:05:25;;;;;;;;;;;;;;;18.53;57.56;101019.91;5034001;28;1951;-30
2022/02/19 06:07:55;;;;;;;;;;;;;;;18.65;56.90;101018.91;5033667;28;1857;-31
2022/02/19 06:10:24;;;;;;;;;;;;;;;18.74;57.14;101013.75;5019974;28;1632;-30
2022/02/19 06:12:53;;;;;;;;;;;;;;;18.83;56.27;101004.97;5033022;28;1645;-30
2022/02/19 06:15:23;;;;;;;;;;;;;;;18.99;56.84;101008.06;5031236;28;1910;-31
2022/02/19 06:17:52;;;;;;;;;;;;;;;19.04;56.99;101002.34;5033604;28;1139;-30
2022/02/19 06:20:19;;;;;;;;;;;;;;;19.14;56.16;101000.56;5033422;28;1737;-30
2022/02/19 06:22:49;;;;;;;;;;;;;;;19.16;56.86;101008.47;5026578;28;1716;-30
2022/02/19 06:25:18;;;;;;;;;;;;;;;19.23;56.76;101018.53;5033302;28;1573;-31
2022/02/19 06:27:46;;;;;;;;;;;;;;;19.18;56.93;100999.31;5023326;28;1554;-32
2022/02/19 06:30:14;;;;;;;;;;;;;;;19.20;56.91;100999.16;5031389;28;1431;-30
2022/02/19 06:32:45;;;;;;;;;;;;;;;19.21;55.84;101001.72;5033333;28;1656;-30
2022/02/19 06:35:25;;;;;;;;;;;;;;;19.18;56.13;101001.13;5028378;28;1925;-31
2022/02/19 06:37:56;;;;;;;;;;;;;;;19.18;56.29;100998.44;5030040;28;1438;-31
2022/02/19 06:40:26;;;;;;;;;;;;;;;19.15;56.50;100996.06;5026724;28;1659;-31
2022/02/19 06:42:52;;;;;;;;;;;;;;;19.13;56.44;100996.19;5021218;28;1950;-30
2022/02/19 06:45:22;;;;;;;;;;;;;;;19.20;56.31;100994.69;5025055;28;1601;-30
2022/02/19 06:47:49;;;;;;;;;;;;;;;19.36;55.92;101004.94;5032220;28;1457;-30
2022/02/19 06:50:20;;;;;;;;;;;;;;;19.42;55.60;101009.78;5026935;28;1962;-30
2022/02/19 06:52:47;;;;;;;;;;;;;;;19.47;55.70;101017.41;5024564;28;1977;-31
2022/02/19 06:55:14;;;;;;;;;;;;;;;19.44;56.50;101002.44;5030684;28;1492;-31
2022/02/19 06:57:43;;;;;;;;;;;;;;;19.52;58.87;100992.88;5033791;28;1977;-31
2022/02/19 07:00:11;;;;;;;;;;;;;;;19.55;57.76;100993.44;5035799;28;1059;-31
2022/02/19 07:02:46;;;;;;;;;;;;;;;19.62;58.87;100977.69;5028060;28;1545;-31
2022/02/19 07:05:16;;;;;;;;;;;;;;;19.70;58.52;100985.06;5033329;28;1444;-32
2022/02/19 07:07:44;;;;;;;;;;;;;;;19.69;59.09;100997.63;5030327;28;1674;-31
2022/02/19 07:10:10;;;;;;;;;;;;;;;19.65;58.77;100969.34;5034956;28;1839;-31
2022/02/19 07:12:42;;;;;;;;;;;;;;;19.71;60.10;100959.94;5027364;28;1338;-31
2022/02/19 07:15:23;;;;;;;;;;;;;;;19.80;58.48;100965.38;5023093;28;1288;-31
2022/02/19 07:17:50;;;;;;;;;;;;;;;19.86;61.35;100963.97;5034544;28;1899;-31
2022/02/19 07:20:26;;;;;;;;;;;;;;;19.80;61.46;100970.72;5032468;28;1509;-31
2022/02/19 07:22:53;;;;;;;;;;;;;;;19.86;62.39;100954.09;5021585;28;1389;-31
2022/02/19 07:25:23;;;;;;;;;;;;;;;19.90;63.80;100951.13;5034300;28;1633;-31
2022/02/19 07:27:49;;;;;;;;;;;;;;;19.92;63.07;100954.53;5024327;28;1653;-31
2022/02/19 07:30:17;;;;;;;;;;;;;;;19.99;62.49;100937.72;5025860;28;1438;-31
2022/02/19 07:32:47;;;;;;;;;;;;;;;19.99;63.10;100923.44;5033777;28;1564;-31
2022/02/19 07:35:22;;;;;;;;;;;;;;;20.01;62.94;100934.91;5030618;28;1732;-31
2022/02/19 07:37:57;;;;;;;;;;;;;;;20.10;62.21;100935.94;5026745;28;1902;-33
2022/02/19 07:40:23;;;;;;;;;;;;;;;20.17;61.01;100931.69;5028579;28;1634;-30
2022/02/19 07:42:50;;;;;;;;;;;;;;;20.23;61.33;100940.03;5035297;28;1865;-31
2022/02/19 07:45:27;;;;;;;;;;;;;;;20.24;60.61;100936.34;5033361;28;1606;-32
2022/02/19 07:48:02;;;;;;;;;;;;;;;20.23;61.26;100925.75;5033414;28;1738;-33
2022/02/19 07:59:02;;;;;;;;;;;;;;;20.38;61.18;100934.25;5014737;28;1365;-32
2022/02/19 08:01:29;;;;;;;;;;;;;;;20.41;61.61;100934.84;5026466;28;1634;-31
2022/02/19 08:03:59;;;;;;;;;;;;;;;20.44;61.83;100925.63;5035008;28;1564;-32
2022/02/19 08:06:25;;;;;;;;;;;;;;;20.51;62.04;100934.81;5034690;28;1410;-32
2022/02/19 08:08:56;;;;;;;;;;;;;;;20.90;60.46;100926.75;5033078;28;1897;-34
2022/02/19 08:11:32;;;;;;;;;;;;;;;21.33;59.98;100922.69;5029497;28;1734;-31
2022/02/19 08:14:13;;;;;;;;;;;;;;;21.68;59.10;100929.22;5026696;28;1741;-31
2022/02/19 08:16:41;;;;;;;;;;;;;;;21.83;58.99;100924.19;5034820;28;1906;-31
2022/02/19 08:19:16;;;;;;;;;;;;;;;22.08;57.08;100905.59;5033190;28;1581;-32
2022/02/19 08:21:42;;;;;;;;;;;;;;;22.24;56.69;100925.53;5031340;28;1701;-31
2022/02/19 08:24:12;;;;;;;;;;;;;;;21.82;57.50;100911.72;5035837;28;1507;-32
2022/02/19 08:26:39;;;;;;;;;;;;;;;21.98;54.76;100908.38;5029227;28;1675;-31
2022/02/19 08:29:05;;;;;;;;;;;;;;;21.72;56.07;100911.78;5031900;28;1662;-32
2022/02/19 08:31:32;;;;;;;;;;;;;;;21.32;57.54;100926.38;5027389;28;1507;-32
2022/02/19 08:33:58;;;;;;;;;;;;;;;21.29;54.03;100921.28;5030582;28;1512;-31
2022/02/19 08:36:28;;;;;;;;;;;;;;;21.29;55.18;100942.81;5026740;28;1902;-31
2022/02/19 08:38:56;;;;;;;;;;;;;;;21.19;51.97;100947.38;5034039;28;1503;-32
2022/02/19 08:41:24;;;;;;;;;;;;;;;20.95;51.31;100946.00;5027433;28;1343;-32
2022/02/19 08:43:50;;;;;;;;;;;;;;;20.91;53.40;100944.59;5032442;28;1935;-31
2022/02/19 08:46:18;;;;;;;;;;;;;;;20.86;53.85;100938.78;5031465;28;1567;-31
2022/02/19 08:48:45;;;;;;;;;;;;;;;20.83;54.33;100945.31;5031978;28;1596;-32
2022/02/19 08:51:11;;;;;;;;;;;;;;;20.78;54.47;100944.03;5030131;28;1560;-31
2022/02/19 08:53:38;;;;;;;;;;;;;;;20.72;54.69;100940.06;5031143;28;1363;-31
2022/02/19 08:56:04;;;;;;;;;;;;;;;20.71;53.95;100951.84;5032074;28;1890;-32
2022/02/19 08:58:32;;;;;;;;;;;;;;;20.67;54.58;100936.94;5028611;28;1547;-32
2022/02/19 09:00:59;;;;;;;;;;;;;;;20.65;54.39;100945.19;5032666;28;1783;-32
2022/02/19 09:03:26;;;;;;;;;;;;;;;20.66;55.37;100936.13;5031438;28;1466;-31
2022/02/19 09:05:52;;;;;;;;;;;;;;;20.59;55.83;100934.13;5025874;28;1750;-31
2022/02/19 09:08:19;;;;;;;;;;;;;;;20.63;56.35;100951.66;5034264;28;1997;-31
2022/02/19 09:10:45;;;;;;;;;;;;;;;20.60;55.00;100942.06;5032156;28;1721;-31
2022/02/19 09:13:11;;;;;;;;;;;;;;;20.62;53.88;100936.56;5032062;28;1730;-31
2022/02/19 09:15:40;;;;;;;;;;;;;;;20.58;54.88;100929.72;5034562;28;1608;-31
2022/02/19 09:18:07;;;;;;;;;;;;;;;20.61;55.68;100964.41;5029106;28;1910;-31
2022/02/19 09:20:34;;;;;;;;;;;;;;;20.70;55.63;100950.13;5034477;28;1686;-31
2022/02/19 09:23:01;;;;;;;;;;;;;;;20.61;55.35;100954.53;5028019;28;1491;-31
2022/02/19 09:25:29;;;;;;;;;;;;;;;20.63;54.97;100957.03;5032838;28;1550;-31
2022/02/19 09:27:55;;;;;;;;;;;;;;;20.60;54.59;100947.44;5030719;28;1250;-31
2022/02/19 09:30:22;;;;;;;;;;;;;;;20.57;55.73;100947.69;5034054;28;1972;-31
2022/02/19 09:32:50;;;;;;;;;;;;;;;20.55;55.09;100951.50;5029596;28;1564;-31
2022/02/19 09:35:17;;;;;;;;;;;;;;;20.51;55.61;100942.88;5034285;28;1790;-31
2022/02/19 09:37:43;;;;;;;;;;;;;;;20.44;56.31;100941.75;5034493;28;1914;-34
2022/02/19 09:40:11;;;;;;;;;;;;;;;20.49;56.55;100944.00;5032842;28;1563;-31
2022/02/19 09:42:37;;;;;;;;;;;;;;;20.43;56.45;100924.78;5031592;28;1945;-31
2022/02/19 09:45:04;;;;;;;;;;;;;;;20.42;56.93;100932.97;5033577;28;1724;-31
2022/02/19 09:47:31;;;;;;;;;;;;;;;20.40;57.89;100919.69;5032772;28;1960;-32
2022/02/19 09:49:59;;;;;;;;;;;;;;;20.41;57.68;100921.41;5027915;28;1620;-31
2022/02/19 09:52:26;;;;;;;;;;;;;;;20.36;57.58;100912.06;5032317;28;1738;-31
2022/02/19 09:54:52;;;;;;;;;;;;;;;20.32;57.44;100910.66;5030163;28;1560;-31
2022/02/19 09:57:35;;;;;;;;;;;;;;;20.30;56.78;100907.25;5034509;28;1978;-31
2022/02/19 10:00:02;;;;;;;;;;;;;;;20.33;57.02;100909.66;5023009;28;1271;-31
2022/02/19 10:02:29;;;;;;;;;;;;;;;20.33;57.51;100905.13;5029369;28;1522;-31
2022/02/19 10:04:56;;;;;;;;;;;;;;;20.36;57.30;100896.78;5026587;28;1691;-31
2022/02/19 10:07:24;;;;;;;;;;;;;;;20.35;57.80;100903.16;5033034;28;1561;-32
2022/02/19 10:09:54;;;;;;;;;;;;;;;20.39;58.01;100911.75;5029802;28;1805;-31
2022/02/19 10:12:20;;;;;;;;;;;;;;;20.35;57.88;100902.28;5032045;28;1588;-31
2022/02/19 10:14:47;;;;;;;;;;;;;;;20.34;57.23;100892.56;5032999;28;1078;-31
2022/02/19 10:17:17;;;;;;;;;;;;;;;20.34;56.52;100897.94;5032885;28;1918;-31
2022/02/19 10:19:47;;;;;;;;;;;;;;;20.32;57.89;100886.47;5028199;28;2138;-31
2022/02/19 10:25:05;;;;;;;;;;;;;;;20.35;56.44;100902.28;5031743;28;1739;-31
2022/02/19 10:27:41;;;;;;;;;;;;;;;20.35;56.01;100891.56;5033189;28;991;-31
2022/02/19 10:30:10;;;;;;;;;;;;;;;20.39;57.72;100874.16;5028050;28;1607;-31
2022/02/19 10:32:47;;;;;;;;;;;;;;;20.54;56.24;100883.50;5022166;28;1830;-32
2022/02/19 10:35:13;;;;;;;;;;;;;;;20.71;56.48;100889.16;5028411;28;1699;-33
2022/02/19 10:37:43;;;;;;;;;;;;;;;20.78;53.30;100869.63;5024106;28;2011;-32
2022/02/19 10:40:25;;;;;;;;;;;;;;;20.74;57.15;100864.69;5031790;28;1490;-31
2022/02/19 10:43:07;;;;;;;;;;;;;;;20.66;56.51;100860.88;5028108;28;1611;-32
2022/02/19 10:45:36;;;;;;;;;;;;;;;20.77;56.68;100857.19;5028686;28;1430;-31
2022/02/19 10:48:13;;;;;;;;;;;;;;;20.78;57.11;100863.41;5031417;28;1715;-31
2022/02/19 10:50:41;;;;;;;;;;;;;;;20.79;56.52;100871.34;5027085;28;1770;-31
2022/02/19 10:53:08;;;;;;;;;;;;;;;20.66;57.77;100868.09;5029754;28;1945;-31
2022/02/19 10:55:36;;;;;;;;;;;;;;;20.65;56.89;100840.38;5031997;28;1601;-31
2022/02/19 10:58:05;;;;;;;;;;;;;;;20.65;57.60;100842.19;5031681;28;1902;-32
2022/02/19 11:00:35;;;;;;;;;;;;;;;20.70;57.65;100849.84;5027899;28;1563;-31
2022/02/19 11:03:03;;;;;;;;;;;;;;;20.66;57.75;100850.13;5030369;28;1434;-31
2022/02/19 11:05:30;;;;;;;;;;;;;;;20.59;57.42;100837.41;5026996;28;1520;-30
2022/02/19 11:07:57;;;;;;;;;;;;;;;20.57;57.63;100837.53;5030143;28;1900;-30
2022/02/19 11:10:23;;;;;;;;;;;;;;;20.54;57.67;100832.44;5028850;28;1540;-31
2022/02/19 11:12:50;;;;;;;;;;;;;;;20.53;57.41;100833.47;5029249;28;1555;-31
2022/02/19 11:15:18;;;;;;;;;;;;;;;20.64;56.30;100830.63;5025425;28;1842;-30
2022/02/19 11:17:46;;;;;;;;;;;;;;;20.61;56.94;100825.56;5027063;28;1907;-31
2022/02/19 11:20:13;;;;;;;;;;;;;;;20.59;57.81;100832.03;5031473;28;1969;-30
2022/02/19 11:22:40;;;;;;;;;;;;;;;20.56;57.72;100825.09;5023919;28;1527;-31
2022/02/19 11:25:08;;;;;;;;;;;;;;;20.62;57.69;100813.78;5028878;28;1533;-32
2022/02/19 11:27:36;;;;;;;;;;;;;;;20.60;57.88;100818.47;5031200;28;1397;-31
2022/02/19 11:30:05;;;;;;;;;;;;;;;20.55;57.92;100830.59;5023864;28;1517;-31
2022/02/19 11:32:33;;;;;;;;;;;;;;;20.59;57.94;100826.66;5029348;28;1398;-32
2022/02/19 11:35:01;;;;;;;;;;;;;;;20.55;58.37;100825.22;5028814;28;1474;-31
2022/02/19 11:37:28;;;;;;;;;;;;;;;20.57;59.15;100816.06;5030654;28;1906;-32
2022/02/19 11:39:58;;;;;;;;;;;;;;;20.54;57.42;100818.19;5026815;28;1932;-32
2022/02/19 11:42:35;;;;;;;;;;;;;;;20.36;53.44;100805.47;5032991;28;1639;-32
2022/02/19 11:45:15;;;;;;;;;;;;;;;20.42;52.28;100809.44;5033305;28;1536;-31
2022/02/19 11:47:42;;;;;;;;;;;;;;;20.24;55.13;100812.00;5033505;28;1466;-31
2022/02/19 11:50:20;;;;;;;;;;;;;;;20.23;54.36;100807.59;5035816;28;1430;-31
2022/02/19 11:52:54;;;;;;;;;;;;;;;20.27;54.84;100806.31;5035605;28;1734;-31
2022/02/19 11:55:30;;;;;;;;;;;;;;;20.32;55.83;100795.16;5034545;28;1765;-31
2022/02/19 11:58:00;;;;;;;;;;;;;;;20.30;55.83;100787.25;5032452;28;1969;-31
2022/02/19 12:00:42;;;;;;;;;;;;;;;20.38;56.31;100791.91;5035306;28;1620;-31
2022/02/19 12:03:22;;;;;;;;;;;;;;;20.44;55.57;100796.69;5035683;28;1544;-32
2022/02/19 12:06:09;;;;;;;;;;;;;;;20.41;55.37;100791.59;5035881;28;1746;-32
2022/02/19 12:08:54;;;;;;;;;;;;;;;20.59;52.03;100795.28;5034876;28;1912;-31
2022/02/19 12:11:21;;;;;;;;;;;;;;;20.61;53.58;100785.25;5033524;28;1735;-31
2022/02/19 12:13:48;;;;;;;;;;;;;;;20.58;54.20;100782.81;5030516;28;1841;-31
2022/02/19 12:16:30;;;;;;;;;;;;;;;20.48;54.06;100792.72;5027870;28;1652;-31
2022/02/19 12:18:57;;;;;;;;;;;;;;;20.41;54.00;100784.41;5033800;28;1973;-31
2022/02/19 12:21:32;;;;;;;;;;;;;;;20.37;55.47;100788.38;5036234;28;1678;-31
2022/02/19 12:24:09;;;;;;;;;;;;;;;20.37;54.66;100784.81;5031325;28;1558;-30
2022/02/19 12:26:51;;;;;;;;;;;;;;;20.52;53.32;100791.44;5031676;28;1322;-31
2022/02/19 12:29:20;;;;;;;;;;;;;;;20.54;54.26;100785.94;5031059;28;1566;-31
2022/02/19 12:31:59;;;;;;;;;;;;;;;20.45;55.80;100783.13;5034309;28;1709;-31
2022/02/19 12:34:27;;;;;;;;;;;;;;;20.42;55.48;100782.56;5032309;28;1901;-31
2022/02/19 12:36:55;;;;;;;;;;;;;;;20.39;55.59;100778.34;5033976;28;1318;-30
2022/02/19 12:39:22;;;;;;;;;;;;;;;20.41;55.48;100759.38;5034039;28;1906;-31
2022/02/19 12:41:49;;;;;;;;;;;;;;;20.39;56.27;100762.22;5033704;28;1213;-31
2022/02/19 12:44:20;;;;;;;;;;;;;;;20.41;55.78;100772.81;5032710;28;2138;-31
2022/02/19 12:46:47;;;;;;;;;;;;;;;20.46;53.81;100766.00;5030584;28;1701;-30
2022/02/19 12:49:16;;;;;;;;;;;;;;;20.50;55.10;100763.88;5031694;28;1460;-31
2022/02/19 12:51:44;;;;;;;;;;;;;;;20.52;54.50;100761.06;5033790;28;1598;-30
2022/02/19 12:54:12;;;;;;;;;;;;;;;20.41;55.78;100757.56;5028737;28;1582;-30
2022/02/19 12:56:39;;;;;;;;;;;;;;;20.43;55.94;100773.50;5034981;28;1471;-30
2022/02/19 12:59:06;;;;;;;;;;;;;;;20.51;53.10;100770.94;5028836;28;1906;-30
2022/02/19 13:01:34;;;;;;;;;;;;;;;20.49;53.79;100756.81;5028034;28;1825;-30
2022/02/19 13:04:01;;;;;;;;;;;;;;;20.54;54.29;100749.16;5026389;28;1714;-30
2022/02/19 13:06:30;;;;;;;;;;;;;;;20.50;54.50;100763.03;5026974;28;1460;-30
2022/02/19 13:09:01;;;;;;;;;;;;;;;20.48;53.86;100749.75;5028347;28;1454;-30
2022/02/19 13:11:32;;;;;;;;;;;;;;;20.36;54.14;100745.53;5034294;28;1494;-30
2022/02/19 13:14:14;;;;;;;;;;;;;;;20.40;54.13;100757.69;5034445;28;1928;-30